Time;durP1;ratioP1;P1;durP2;ratioP2;P2;SDS_P1;SDS_P2;PMS_P1;PMS_P2;Temp;Humidity;BMP_temperature;BMP_pressure;BME280_temperature;BME280_humidity;BME280_pressure;Samples;Min_cycle;Max_cycle;Signal;HPM_P1;HPM_P2
2023/01/12 00:00:44;;;;;;;;;;;;;;;9.75;100.00;99075.91;5068214;28;19916;-72
2023/01/12 00:03:09;;;;;;;;;;;;;;;9.63;100.00;99077.94;5067629;28;20448;-72
2023/01/12 00:05:35;;;;;;;;;;;;;;;9.59;100.00;99068.59;5068459;28;20023;-73
2023/01/12 00:08:00;;;;;;;;;;;;;;;9.36;100.00;99058.09;5071013;28;19960;-73
2023/01/12 00:10:25;;;;;;;;;;;;;;;9.55;100.00;99077.28;5071885;28;19973;-72
2023/01/12 00:12:50;;;;;;;;;;;;;;;9.67;100.00;99085.56;5072646;28;19920;-72
2023/01/12 00:15:16;;;;;;;;;;;;;;;9.29;100.00;99075.41;5053662;28;19930;-72
2023/01/12 00:17:41;;;;;;;;;;;;;;;9.93;100.00;99103.69;5054265;28;20015;-72
2023/01/12 00:20:06;;;;;;;;;;;;;;;10.09;100.00;99098.97;5072725;28;20004;-72
2023/01/12 00:22:32;;;;;;;;;;;;;;;9.79;100.00;99073.22;5071488;28;19994;-72
2023/01/12 00:24:57;;;;;;;;;;;;;;;9.60;100.00;99075.44;5073127;28;20439;-72
2023/01/12 00:27:22;;;;;;;;;;;;;;;9.98;100.00;99086.41;5071793;28;20345;-72
2023/01/12 00:29:48;;;;;;;;;;;;;;;10.04;100.00;99075.09;5071920;28;19966;-72
2023/01/12 00:32:14;;;;;;;;;;;;;;;9.49;100.00;99064.59;5073098;28;19936;-72
2023/01/12 00:34:39;;;;;;;;;;;;;;;9.60;100.00;99070.31;5053929;28;20064;-72
2023/01/12 00:37:05;;;;;;;;;;;;;;;9.71;100.00;99082.03;5052911;28;19920;-72
2023/01/12 00:39:30;;;;;;;;;;;;;;;9.66;100.00;99076.16;5070559;28;19920;-72
2023/01/12 00:47:23;;;;;;;;;;;;;;;9.53;100.00;99088.50;5072195;28;20019;-72
2023/01/12 00:49:48;;;;;;;;;;;;;;;9.51;100.00;99096.25;5052089;28;20007;-72
2023/01/12 00:52:15;;;;;;;;;;;;;;;9.81;100.00;99098.91;5052498;28;19964;-72
2023/01/12 00:54:40;;;;;;;;;;;;;;;9.59;100.00;99089.19;5053400;28;19924;-72
2023/01/12 00:57:05;;;;;;;;;;;;;;;9.63;100.00;99095.94;5071992;28;19962;-73
2023/01/12 00:59:31;;;;;;;;;;;;;;;9.87;100.00;99114.16;5052711;28;19917;-72
2023/01/12 01:01:56;;;;;;;;;;;;;;;9.84;100.00;99094.50;5053299;28;20023;-72
2023/01/12 01:04:21;;;;;;;;;;;;;;;9.77;100.00;99098.13;5052976;28;19924;-73
2023/01/12 01:06:46;;;;;;;;;;;;;;;9.88;100.00;99115.84;5072227;28;19920;-72
2023/01/12 01:09:12;;;;;;;;;;;;;;;9.98;100.00;99121.56;5071629;28;20030;-72
2023/01/12 01:11:37;;;;;;;;;;;;;;;10.08;100.00;99129.88;5053293;28;19920;-72
2023/01/12 01:14:02;;;;;;;;;;;;;;;9.99;100.00;99128.41;5053073;28;19920;-72
2023/01/12 01:16:28;;;;;;;;;;;;;;;9.90;100.00;99118.34;5052341;28;20398;-72
2023/01/12 01:18:53;;;;;;;;;;;;;;;9.81;100.00;99112.59;5052518;28;19925;-73
2023/01/12 01:21:19;;;;;;;;;;;;;;;9.93;100.00;99126.00;5071338;28;20382;-72
2023/01/12 01:23:44;;;;;;;;;;;;;;;9.95;100.00;99124.25;5070733;28;19916;-72
2023/01/12 01:26:13;;;;;;;;;;;;;;;10.05;100.00;99118.78;5052577;28;19924;-72
2023/01/12 01:28:39;;;;;;;;;;;;;;;9.73;100.00;99109.38;5069511;28;19917;-72
2023/01/12 01:31:05;;;;;;;;;;;;;;;10.15;100.00;99121.97;5045213;28;20527;-72
2023/01/12 01:33:30;;;;;;;;;;;;;;;10.51;100.00;99131.25;5053922;28;20359;-72
2023/01/12 01:35:56;;;;;;;;;;;;;;;9.98;100.00;99106.13;5052992;28;19920;-72
2023/01/12 01:38:21;;;;;;;;;;;;;;;10.12;100.00;99114.31;5071853;28;19981;-73
2023/01/12 01:40:46;;;;;;;;;;;;;;;9.84;100.00;99103.94;5052961;28;20349;-72
2023/01/12 01:43:13;;;;;;;;;;;;;;;10.30;100.00;99110.41;5072405;28;20393;-72
2023/01/12 01:45:38;;;;;;;;;;;;;;;9.86;100.00;99102.19;5072098;28;19962;-72
2023/01/12 01:48:03;;;;;;;;;;;;;;;10.43;100.00;99129.75;5052823;28;20390;-72
2023/01/12 01:50:30;;;;;;;;;;;;;;;9.74;100.00;99117.94;5053847;28;19946;-72
2023/01/12 01:53:02;;;;;;;;;;;;;;;9.82;100.00;99126.28;5053268;28;20014;-73
2023/01/12 01:55:29;;;;;;;;;;;;;;;9.58;100.00;99128.63;5053663;28;20443;-72
2023/01/12 01:57:55;;;;;;;;;;;;;;;9.39;100.00;99133.38;5052861;28;19924;-72
2023/01/12 02:00:21;;;;;;;;;;;;;;;10.26;94.88;99165.38;5053138;28;19962;-72
2023/01/12 02:02:46;;;;;;;;;;;;;;;9.88;98.80;99133.03;5071613;28;19924;-72
2023/01/12 02:05:12;;;;;;;;;;;;;;;10.11;97.91;99137.53;5052744;28;19916;-72
2023/01/12 02:07:38;;;;;;;;;;;;;;;10.24;99.05;99138.84;5071464;28;20317;-72
2023/01/12 02:10:04;;;;;;;;;;;;;;;10.54;99.81;99132.03;5053866;28;19934;-72
2023/01/12 02:18:16;;;;;;;;;;;;;;;10.09;100.00;99098.97;5056531;28;19923;-72
2023/01/12 02:20:41;;;;;;;;;;;;;;;10.16;100.00;99094.50;5071655;28;19951;-72
2023/01/12 02:23:22;;;;;;;;;;;;;;;10.36;98.69;99122.25;5072313;28;20382;-72
2023/01/12 02:25:47;;;;;;;;;;;;;;;10.36;99.14;99124.84;5071187;28;20038;-72
2023/01/12 02:28:15;;;;;;;;;;;;;;;10.40;100.00;99110.97;5070475;28;20011;-72
2023/01/12 02:30:56;;;;;;;;;;;;;;;10.24;99.32;99102.81;5070223;28;19942;-73
2023/01/12 02:33:32;;;;;;;;;;;;;;;10.14;99.29;99091.13;5071234;28;19931;-72
2023/01/12 02:36:05;;;;;;;;;;;;;;;9.90;100.00;99087.50;5051946;28;19913;-72
2023/01/12 02:38:34;;;;;;;;;;;;;;;10.41;94.31;99113.50;5052649;28;20010;-72
2023/01/12 02:41:17;;;;;;;;;;;;;;;10.00;96.84;99106.94;5053050;28;20027;-72
2023/01/12 02:43:42;;;;;;;;;;;;;;;10.01;95.16;99100.91;5052264;28;19920;-72
2023/01/12 02:46:10;;;;;;;;;;;;;;;10.17;93.01;99112.47;5052100;28;19967;-72
2023/01/12 02:48:37;;;;;;;;;;;;;;;10.36;93.30;99119.69;5070283;28;20475;-72
2023/01/12 02:51:10;;;;;;;;;;;;;;;10.42;95.86;99101.47;5052215;28;19969;-73
2023/01/12 02:53:42;;;;;;;;;;;;;;;10.21;96.97;99100.34;5052288;28;19924;-73
2023/01/12 02:56:07;;;;;;;;;;;;;;;10.00;97.44;99076.91;5053870;28;20371;-72
2023/01/12 02:58:34;;;;;;;;;;;;;;;9.84;96.97;99073.09;5051554;28;19972;-72
2023/01/12 03:00:59;;;;;;;;;;;;;;;10.50;95.47;99104.66;5053733;28;19921;-74
2023/01/12 03:03:25;;;;;;;;;;;;;;;10.40;95.14;99093.81;5051440;28;20342;-73
2023/01/12 03:05:50;;;;;;;;;;;;;;;10.39;97.86;99086.97;5069862;28;19928;-72
2023/01/12 03:08:17;;;;;;;;;;;;;;;10.15;97.98;99074.78;5049625;28;19927;-72
2023/01/12 03:10:58;;;;;;;;;;;;;;;10.74;96.03;99090.22;5051943;28;19920;-71
2023/01/12 03:13:23;;;;;;;;;;;;;;;10.13;100.00;99053.41;5053217;28;19951;-71
2023/01/12 03:15:49;;;;;;;;;;;;;;;10.21;96.73;99066.88;5051103;28;19917;-71
2023/01/12 03:18:20;;;;;;;;;;;;;;;10.54;96.50;99083.09;5070442;28;20386;-71
2023/01/12 03:20:47;;;;;;;;;;;;;;;10.57;98.58;99067.53;5052447;28;19916;-72
2023/01/12 03:23:13;;;;;;;;;;;;;;;10.67;100.00;99048.34;5051468;28;20305;-72
2023/01/12 03:25:39;;;;;;;;;;;;;;;10.92;100.00;99054.44;5051610;28;19920;-72
2023/01/12 03:28:04;;;;;;;;;;;;;;;10.52;100.00;99030.78;5051113;28;19961;-71
2023/01/12 03:30:33;;;;;;;;;;;;;;;10.55;100.00;99030.69;5051980;28;20354;-72
2023/01/12 03:32:59;;;;;;;;;;;;;;;10.77;100.00;99030.84;5052225;28;20382;-72
2023/01/12 03:35:24;;;;;;;;;;;;;;;10.84;100.00;99022.03;5050769;28;19923;-72
2023/01/12 03:37:53;;;;;;;;;;;;;;;10.93;100.00;99018.31;5043461;28;20408;-72
2023/01/12 03:40:29;;;;;;;;;;;;;;;10.78;100.00;99001.63;5050961;28;19921;-72
2023/01/12 03:43:05;;;;;;;;;;;;;;;11.03;100.00;98999.06;5069158;28;19927;-72
2023/01/12 03:45:51;;;;;;;;;;;;;;;10.48;100.00;98974.28;5051761;28;20340;-72
2023/01/12 03:48:16;;;;;;;;;;;;;;;9.72;100.00;98981.69;5067988;28;20637;-72
2023/01/12 03:50:43;;;;;;;;;;;;;;;9.69;97.00;99010.03;5070472;28;19916;-72
2023/01/12 03:53:09;;;;;;;;;;;;;;;9.93;90.21;99051.41;5051283;28;19924;-72
2023/01/12 03:55:34;;;;;;;;;;;;;;;10.23;88.02;99080.56;5051130;28;20386;-72
2023/01/12 03:57:59;;;;;;;;;;;;;;;10.22;91.21;99061.69;5051148;28;19916;-72
2023/01/12 04:00:24;;;;;;;;;;;;;;;10.38;91.79;99054.41;5051445;28;19917;-72
2023/01/12 04:02:50;;;;;;;;;;;;;;;9.98;95.77;99034.94;5051516;28;19920;-73
2023/01/12 04:05:15;;;;;;;;;;;;;;;9.99;93.56;99030.63;5069214;28;19955;-72
2023/01/12 04:07:40;;;;;;;;;;;;;;;10.03;91.37;99043.41;5070079;28;19967;-72
2023/01/12 04:10:06;;;;;;;;;;;;;;;10.15;89.34;99049.03;5069538;28;19970;-72
2023/01/12 04:12:31;;;;;;;;;;;;;;;10.10;90.48;99048.34;5069204;28;19920;-72
2023/01/12 04:14:56;;;;;;;;;;;;;;;10.22;91.33;99041.09;5052130;28;19960;-72
2023/01/12 04:17:24;;;;;;;;;;;;;;;9.80;92.75;99025.19;5069557;28;19921;-72
2023/01/12 04:19:50;;;;;;;;;;;;;;;10.14;86.81;99052.50;5069645;28;19916;-72
2023/01/12 04:24:59;;;;;;;;;;;;;;;10.01;87.11;99058.03;5054540;28;19927;-72
2023/01/12 04:27:24;;;;;;;;;;;;;;;9.96;90.75;99036.72;5068881;28;19920;-72
2023/01/12 04:29:49;;;;;;;;;;;;;;;10.14;90.50;99030.19;5068965;28;20011;-72
2023/01/12 04:32:14;;;;;;;;;;;;;;;9.94;90.74;99025.63;5069090;28;20031;-72
2023/01/12 04:34:40;;;;;;;;;;;;;;;10.11;88.76;99037.19;5050297;28;19969;-72
2023/01/12 04:37:05;;;;;;;;;;;;;;;10.31;90.42;99027.16;5069655;28;19920;-72
2023/01/12 04:39:30;;;;;;;;;;;;;;;9.96;95.59;99000.69;5066530;28;20370;-72
2023/01/12 04:41:55;;;;;;;;;;;;;;;10.33;94.50;99003.91;5070201;28;20289;-72
2023/01/12 04:44:21;;;;;;;;;;;;;;;10.39;97.08;98994.28;5068702;28;20406;-73
2023/01/12 04:46:49;;;;;;;;;;;;;;;10.33;98.83;98970.47;5068818;28;20440;-74
2023/01/12 04:49:14;;;;;;;;;;;;;;;10.33;99.40;98945.59;5068767;28;19927;-74
2023/01/12 04:51:39;;;;;;;;;;;;;;;10.54;98.62;98948.34;5051432;28;19916;-73
2023/01/12 04:54:05;;;;;;;;;;;;;;;10.42;99.63;98935.00;5071904;28;20046;-73
2023/01/12 04:56:30;;;;;;;;;;;;;;;10.26;100.00;98911.44;5072910;28;19920;-73
2023/01/12 04:58:58;;;;;;;;;;;;;;;10.33;100.00;98919.84;5054951;28;19927;-72
2023/01/12 05:01:24;;;;;;;;;;;;;;;10.23;100.00;98920.97;5055982;28;19924;-74
2023/01/12 05:03:49;;;;;;;;;;;;;;;10.33;100.00;98906.97;5053818;28;19924;-74
2023/01/12 05:06:14;;;;;;;;;;;;;;;10.71;99.96;98917.72;5073356;28;19924;-74
2023/01/12 05:11:27;;;;;;;;;;;;;;;10.01;100.00;98870.22;5073422;28;19940;-74
2023/01/12 05:13:52;;;;;;;;;;;;;;;10.27;100.00;98902.81;5055059;28;19924;-73
2023/01/12 05:16:18;;;;;;;;;;;;;;;10.11;100.00;98891.34;5073177;28;19916;-74
2023/01/12 05:18:43;;;;;;;;;;;;;;;10.03;99.98;98889.03;5072928;28;19963;-74
2023/01/12 05:21:09;;;;;;;;;;;;;;;10.31;99.04;98893.31;5055053;28;19966;-73
2023/01/12 05:23:34;;;;;;;;;;;;;;;10.34;99.69;98888.03;5045682;28;19916;-73
2023/01/12 05:26:00;;;;;;;;;;;;;;;10.52;98.14;98881.44;5060326;28;20502;-72
2023/01/12 05:28:26;;;;;;;;;;;;;;;10.12;100.00;98848.44;5053261;28;20426;-72
2023/01/12 05:30:51;;;;;;;;;;;;;;;10.32;100.00;98853.78;5053516;28;19999;-72
2023/01/12 05:33:18;;;;;;;;;;;;;;;10.28;100.00;98836.72;5073076;28;20010;-73
2023/01/12 05:35:43;;;;;;;;;;;;;;;10.51;100.00;98838.56;5070927;28;20425;-74
2023/01/12 05:38:08;;;;;;;;;;;;;;;10.33;100.00;98827.19;5072458;28;19913;-73
2023/01/12 05:40:34;;;;;;;;;;;;;;;9.54;100.00;98802.25;5071132;28;19920;-72
2023/01/12 05:45:42;;;;;;;;;;;;;;;9.81;98.60;98836.56;5072242;28;20668;-73
2023/01/12 05:48:08;;;;;;;;;;;;;;;10.04;96.24;98851.25;5071799;28;19932;-72
2023/01/12 05:50:33;;;;;;;;;;;;;;;10.22;97.56;98842.09;5072125;28;19989;-72
2023/01/12 05:52:59;;;;;;;;;;;;;;;9.69;98.68;98826.66;5044772;28;19919;-73
2023/01/12 05:55:24;;;;;;;;;;;;;;;10.16;95.52;98842.28;5051397;28;19932;-72
2023/01/12 05:57:49;;;;;;;;;;;;;;;10.11;97.18;98844.19;5042743;28;19916;-73
2023/01/12 06:00:15;;;;;;;;;;;;;;;9.71;97.06;98824.88;5068973;28;19942;-72
2023/01/12 06:02:40;;;;;;;;;;;;;;;9.98;94.45;98834.28;5069774;28;20043;-72
2023/01/12 06:05:08;;;;;;;;;;;;;;;10.11;91.47;98862.19;5069704;28;19916;-72
2023/01/12 06:07:33;;;;;;;;;;;;;;;9.99;92.12;98851.41;5069466;28;20433;-72
2023/01/12 06:09:58;;;;;;;;;;;;;;;9.85;92.08;98840.69;5069394;28;19962;-73
2023/01/12 06:15:07;;;;;;;;;;;;;;;10.30;91.02;98859.88;5070575;28;19993;-72
2023/01/12 06:17:33;;;;;;;;;;;;;;;9.98;95.30;98818.84;5071506;28;19959;-73
2023/01/12 06:19:58;;;;;;;;;;;;;;;9.98;94.07;98818.84;5071196;28;19927;-72
2023/01/12 06:22:23;;;;;;;;;;;;;;;9.90;94.11;98810.53;5069530;28;19917;-73
2023/01/12 06:24:49;;;;;;;;;;;;;;;9.97;94.27;98824.06;5071105;28;19908;-74
2023/01/12 06:27:15;;;;;;;;;;;;;;;9.97;95.59;98811.19;5053276;28;20006;-72
2023/01/12 06:29:40;;;;;;;;;;;;;;;9.91;94.17;98812.22;5070735;28;20150;-71
2023/01/12 06:32:05;;;;;;;;;;;;;;;9.93;92.16;98815.59;5070407;28;19920;-72
2023/01/12 06:34:34;;;;;;;;;;;;;;;10.14;92.23;98828.63;5070477;28;19923;-72
2023/01/12 06:36:59;;;;;;;;;;;;;;;10.24;94.13;98819.69;5070878;28;20592;-72
2023/01/12 06:39:24;;;;;;;;;;;;;;;9.60;94.63;98795.19;5070002;28;19916;-71
2023/01/12 06:44:33;;;;;;;;;;;;;;;9.84;89.24;98836.47;5070336;28;19956;-74
2023/01/12 06:47:00;;;;;;;;;;;;;;;9.93;90.95;98820.72;5052668;28;19916;-72
2023/01/12 06:49:25;;;;;;;;;;;;;;;9.74;95.07;98796.47;5050865;28;19916;-72
2023/01/12 06:51:51;;;;;;;;;;;;;;;10.01;96.07;98793.03;5069855;28;19924;-72
2023/01/12 06:54:16;;;;;;;;;;;;;;;9.50;99.15;98786.09;5070121;28;19912;-73
2023/01/12 06:56:41;;;;;;;;;;;;;;;9.60;99.43;98761.78;5051814;28;20011;-73
2023/01/12 06:59:08;;;;;;;;;;;;;;;9.77;99.28;98773.25;5070070;28;19959;-73
2023/01/12 07:01:34;;;;;;;;;;;;;;;10.05;100.00;98762.88;5069730;28;19920;-72
2023/01/12 07:03:59;;;;;;;;;;;;;;;9.53;100.00;98715.72;5070261;28;19923;-73
2023/01/12 07:06:24;;;;;;;;;;;;;;;10.10;100.00;98749.84;5070046;28;20030;-72
2023/01/12 07:08:49;;;;;;;;;;;;;;;9.87;100.00;98728.31;5069180;28;19946;-73
2023/01/12 07:11:15;;;;;;;;;;;;;;;9.81;100.00;98737.09;5071180;28;19920;-74
2023/01/12 07:13:41;;;;;;;;;;;;;;;10.07;100.00;98737.94;5069891;28;20278;-72
2023/01/12 07:16:06;;;;;;;;;;;;;;;10.07;100.00;98722.50;5051728;28;19927;-72
2023/01/12 07:18:31;;;;;;;;;;;;;;;9.64;100.00;98691.34;5070121;28;20370;-72
2023/01/12 07:20:57;;;;;;;;;;;;;;;9.86;100.00;98708.66;5051534;28;19931;-73
2023/01/12 07:23:22;;;;;;;;;;;;;;;10.05;100.00;98694.25;5070353;28;20494;-72
2023/01/12 07:25:47;;;;;;;;;;;;;;;10.05;100.00;98696.00;5069003;28;19924;-72
2023/01/12 07:28:12;;;;;;;;;;;;;;;9.99;100.00;98671.31;5069955;28;19942;-72
2023/01/12 07:30:37;;;;;;;;;;;;;;;9.64;100.00;98660.50;5068090;28;20549;-72
2023/01/12 07:33:06;;;;;;;;;;;;;;;10.05;100.00;98670.25;5070083;28;20356;-72
2023/01/12 07:35:31;;;;;;;;;;;;;;;10.01;100.00;98674.69;5051056;28;19923;-72
2023/01/12 07:37:57;;;;;;;;;;;;;;;10.20;100.00;98684.34;5070304;28;19916;-72
2023/01/12 07:40:22;;;;;;;;;;;;;;;9.76;100.00;98673.84;5069281;28;19927;-72
2023/01/12 07:42:47;;;;;;;;;;;;;;;9.84;100.00;98679.56;5069477;28;19916;-72
2023/01/12 07:45:12;;;;;;;;;;;;;;;9.77;100.00;98671.22;5069491;28;19942;-73
2023/01/12 07:47:38;;;;;;;;;;;;;;;9.82;100.00;98691.63;5068548;28;20263;-72
2023/01/12 07:50:03;;;;;;;;;;;;;;;9.92;100.00;98692.16;5053057;28;19928;-74
2023/01/12 07:52:28;;;;;;;;;;;;;;;9.96;100.00;98702.28;5050427;28;20282;-73
2023/01/12 07:54:54;;;;;;;;;;;;;;;9.79;100.00;98700.31;5070173;28;20424;-72
2023/01/12 07:57:19;;;;;;;;;;;;;;;10.51;100.00;98719.28;5069371;28;20341;-72
2023/01/12 07:59:44;;;;;;;;;;;;;;;9.91;100.00;98698.19;5069606;28;20447;-72
2023/01/12 08:02:16;;;;;;;;;;;;;;;9.83;100.00;98714.75;5069602;28;19926;-72
2023/01/12 08:04:44;;;;;;;;;;;;;;;9.97;100.00;98714.28;5052400;28;20303;-72
2023/01/12 08:07:10;;;;;;;;;;;;;;;10.28;100.00;98713.19;5051563;28;19920;-72
2023/01/12 08:09:35;;;;;;;;;;;;;;;10.09;100.00;98696.75;5069001;28;19923;-72
2023/01/12 08:12:00;;;;;;;;;;;;;;;10.42;100.00;98712.72;5069386;28;20002;-72
2023/01/12 08:14:27;;;;;;;;;;;;;;;10.55;100.00;98697.69;5068802;28;19916;-71
2023/01/12 08:16:54;;;;;;;;;;;;;;;10.28;100.00;98687.47;5051423;28;20035;-71
2023/01/12 08:19:20;;;;;;;;;;;;;;;10.42;100.00;98687.84;5069503;28;19916;-71
2023/01/12 08:21:47;;;;;;;;;;;;;;;10.31;100.00;98687.41;5051651;28;20431;-71
2023/01/12 08:24:12;;;;;;;;;;;;;;;10.66;100.00;98698.13;5051507;28;19962;-72
2023/01/12 08:26:38;;;;;;;;;;;;;;;10.67;100.00;98705.81;5051034;28;20449;-72
2023/01/12 08:29:03;;;;;;;;;;;;;;;10.45;100.00;98710.91;5054545;28;20378;-71
2023/01/12 08:31:29;;;;;;;;;;;;;;;10.45;100.00;98710.91;5071845;28;19920;-72
2023/01/12 08:33:54;;;;;;;;;;;;;;;10.37;100.00;98717.22;5073336;28;19916;-72
2023/01/12 08:36:19;;;;;;;;;;;;;;;10.33;100.00;98711.34;5072431;28;19916;-72
2023/01/12 08:38:44;;;;;;;;;;;;;;;10.54;99.74;98714.03;5054719;28;19982;-72
2023/01/12 08:46:52;;;;;;;;;;;;;;;10.48;100.00;98730.53;5043621;28;19916;-72
2023/01/12 08:49:18;;;;;;;;;;;;;;;10.75;98.68;98744.16;5053761;28;19985;-73
2023/01/12 08:51:43;;;;;;;;;;;;;;;10.45;98.20;98730.66;5072861;28;19920;-72
2023/01/12 08:54:09;;;;;;;;;;;;;;;10.82;96.42;98748.19;5073091;28;20302;-71
2023/01/12 08:56:34;;;;;;;;;;;;;;;10.60;95.58;98755.00;5054787;28;20346;-71
2023/01/12 08:59:00;;;;;;;;;;;;;;;10.37;94.25;98750.69;5053767;28;19922;-72
2023/01/12 09:01:26;;;;;;;;;;;;;;;10.66;91.79;98776.22;5054237;28;19944;-71
2023/01/12 09:03:51;;;;;;;;;;;;;;;10.75;92.45;98777.63;5072827;28;19962;-71
2023/01/12 09:06:17;;;;;;;;;;;;;;;10.81;90.30;98782.56;5054034;28;19973;-71
2023/01/12 09:08:43;;;;;;;;;;;;;;;10.80;92.01;98791.19;5054729;28;20389;-71
2023/01/12 09:11:09;;;;;;;;;;;;;;;10.84;91.36;98785.03;5054552;28;19916;-71
2023/01/12 09:13:34;;;;;;;;;;;;;;;10.85;92.79;98780.72;5071916;28;19935;-71
2023/01/12 09:16:06;;;;;;;;;;;;;;;10.76;90.93;98793.91;5072345;28;19922;-71
2023/01/12 09:18:31;;;;;;;;;;;;;;;10.86;87.24;98806.41;5053289;28;19962;-71
2023/01/12 09:21:03;;;;;;;;;;;;;;;10.67;85.24;98823.41;5072052;28;20325;-71
2023/01/12 09:23:28;;;;;;;;;;;;;;;10.48;85.95;98823.22;5053531;28;19912;-71
2023/01/12 09:25:54;;;;;;;;;;;;;;;10.85;79.01;98863.97;5073798;28;19970;-71
2023/01/12 09:28:19;;;;;;;;;;;;;;;11.00;77.61;98882.38;5071563;28;19918;-71
2023/01/12 09:30:44;;;;;;;;;;;;;;;10.87;81.83;98867.34;5071922;28;19919;-72
2023/01/12 09:33:10;;;;;;;;;;;;;;;11.11;82.71;98877.69;5071757;28;20022;-73
2023/01/12 09:35:36;;;;;;;;;;;;;;;10.48;83.28;98855.84;5072229;28;19963;-72
2023/01/12 09:38:01;;;;;;;;;;;;;;;11.03;78.05;98895.16;5071928;28;19916;-71
2023/01/12 09:40:26;;;;;;;;;;;;;;;10.40;79.94;98882.72;5072147;28;20438;-71
2023/01/12 09:48:22;;;;;;;;;;;;;;;10.97;68.50;98952.91;5070083;28;20003;-71
2023/01/12 09:50:51;;;;;;;;;;;;;;;10.92;71.76;98951.38;5037512;28;20023;-72
2023/01/12 09:53:17;;;;;;;;;;;;;;;10.88;69.72;98961.78;5053396;28;19954;-72
2023/01/12 09:55:43;;;;;;;;;;;;;;;10.79;70.43;98961.25;5044380;28;19916;-71
2023/01/12 09:58:17;;;;;;;;;;;;;;;10.68;71.55;98959.03;5071193;28;19992;-71
2023/01/12 10:00:43;;;;;;;;;;;;;;;10.79;71.31;98981.88;5053506;28;20002;-72
2023/01/12 10:03:11;;;;;;;;;;;;;;;11.48;70.08;99010.44;5053315;28;20367;-71
2023/01/12 10:05:39;;;;;;;;;;;;;;;11.02;72.63;98973.38;5070801;28;19923;-71
2023/01/12 10:08:04;;;;;;;;;;;;;;;11.04;71.07;98977.56;5072274;28;19924;-70
2023/01/12 10:10:29;;;;;;;;;;;;;;;10.97;72.45;98980.38;5052966;28;19915;-71
2023/01/12 10:12:55;;;;;;;;;;;;;;;10.94;70.33;99001.94;5070307;28;20744;-72
2023/01/12 10:15:24;;;;;;;;;;;;;;;11.04;67.47;99015.38;5053916;28;20385;-72
2023/01/12 10:18:09;;;;;;;;;;;;;;;11.14;69.92;99028.81;5071113;28;19963;-71
2023/01/12 10:20:42;;;;;;;;;;;;;;;11.16;66.92;99022.69;5071332;28;19922;-71
2023/01/12 10:23:07;;;;;;;;;;;;;;;11.35;66.47;99040.09;5061146;28;19920;-71
2023/01/12 10:25:48;;;;;;;;;;;;;;;11.16;66.87;99032.16;5070674;28;19920;-72
2023/01/12 10:28:13;;;;;;;;;;;;;;;11.16;67.08;99048.47;5071404;28;20527;-71
2023/01/12 10:30:39;;;;;;;;;;;;;;;11.12;69.63;99051.19;5070158;28;19916;-71
2023/01/12 10:33:08;;;;;;;;;;;;;;;11.04;64.90;99064.34;5070745;28;19927;-71
2023/01/12 10:35:33;;;;;;;;;;;;;;;11.07;65.28;99072.81;5070119;28;20824;-71
2023/01/12 10:37:59;;;;;;;;;;;;;;;11.41;63.71;99105.22;5070802;28;20003;-71
2023/01/12 10:40:25;;;;;;;;;;;;;;;11.31;65.61;99098.66;5070180;28;20070;-71
2023/01/12 10:45:35;;;;;;;;;;;;;;;11.36;65.89;99107.09;5072004;28;19920;-72
2023/01/12 10:48:04;;;;;;;;;;;;;;;11.38;66.74;99101.88;5068422;28;19916;-71
2023/01/12 10:50:31;;;;;;;;;;;;;;;11.40;67.63;99094.94;5052080;28;19916;-72
2023/01/12 10:53:00;;;;;;;;;;;;;;;11.36;67.46;99095.94;5070496;28;19920;-72
2023/01/12 10:55:28;;;;;;;;;;;;;;;11.29;66.09;99092.75;5052741;28;19959;-70
2023/01/12 10:57:54;;;;;;;;;;;;;;;11.14;65.40;99106.13;5070891;28;19923;-71
2023/01/12 11:00:20;;;;;;;;;;;;;;;11.12;64.85;99119.06;5069083;28;19912;-71
2023/01/12 11:02:46;;;;;;;;;;;;;;;11.24;63.76;99144.44;5052265;28;19916;-71
2023/01/12 11:05:29;;;;;;;;;;;;;;;11.14;63.37;99148.19;5070533;28;19965;-72
2023/01/12 11:07:55;;;;;;;;;;;;;;;11.16;63.69;99179.09;5071080;28;19920;-72
2023/01/12 11:10:26;;;;;;;;;;;;;;;11.46;63.36;99215.94;5071247;28;20019;-71
2023/01/12 11:13:02;;;;;;;;;;;;;;;11.34;65.18;99213.75;5070903;28;19942;-72
2023/01/12 11:15:28;;;;;;;;;;;;;;;11.59;63.14;99214.66;5053012;28;19920;-71
2023/01/12 11:18:04;;;;;;;;;;;;;;;11.38;65.18;99228.22;5051648;28;19921;-71
2023/01/12 11:20:49;;;;;;;;;;;;;;;11.36;65.45;99219.69;5069856;28;20019;-72
2023/01/12 11:23:14;;;;;;;;;;;;;;;11.74;63.80;99259.72;5051189;28;19919;-72
2023/01/12 11:25:44;;;;;;;;;;;;;;;11.52;65.82;99249.28;5069296;28;19916;-72
2023/01/12 11:28:18;;;;;;;;;;;;;;;11.76;66.03;99254.53;5051918;28;20537;-71
2023/01/12 11:30:51;;;;;;;;;;;;;;;11.36;68.03;99233.44;5051936;28;20006;-72
2023/01/12 11:33:20;;;;;;;;;;;;;;;11.54;66.50;99246.63;5050494;28;19927;-72
2023/01/12 11:35:57;;;;;;;;;;;;;;;11.68;66.29;99253.06;5067489;28;20050;-72
2023/01/12 11:38:23;;;;;;;;;;;;;;;11.69;67.20;99243.56;5069513;28;19935;-71
2023/01/12 11:40:49;;;;;;;;;;;;;;;11.27;68.11;99221.69;5034700;28;19961;-72
2023/01/12 11:46:20;;;;;;;;;;;;;;;11.68;67.21;99265.94;5038588;28;19917;-72
2023/01/12 11:48:49;;;;;;;;;;;;;;;11.49;68.08;99246.78;5046038;28;20810;-72
2023/01/12 11:51:15;;;;;;;;;;;;;;;11.52;68.24;99239.81;5050887;28;20014;-72
2023/01/12 11:53:40;;;;;;;;;;;;;;;11.29;68.76;99243.09;5050842;28;19943;-72
2023/01/12 11:56:17;;;;;;;;;;;;;;;11.58;67.67;99274.03;5051555;28;19956;-72
2023/01/12 11:58:55;;;;;;;;;;;;;;;11.70;68.72;99274.50;5069547;28;20039;-72
2023/01/12 12:01:32;;;;;;;;;;;;;;;11.55;69.21;99256.91;5068975;28;19916;-72
2023/01/12 12:03:59;;;;;;;;;;;;;;;11.76;68.53;99259.69;5054065;28;20006;-72
2023/01/12 12:06:45;;;;;;;;;;;;;;;11.71;68.57;99262.41;5054890;28;19919;-71
2023/01/12 12:09:30;;;;;;;;;;;;;;;11.45;70.70;99240.06;5056429;28;19923;-72
2023/01/12 12:11:55;;;;;;;;;;;;;;;11.59;70.43;99230.13;5055123;28;19943;-72
2023/01/12 12:14:39;;;;;;;;;;;;;;;11.78;68.79;99238.09;5073216;28;19920;-71
2023/01/12 12:17:07;;;;;;;;;;;;;;;11.88;68.41;99228.34;5074108;28;19927;-72
2023/01/12 12:19:36;;;;;;;;;;;;;;;11.86;68.27;99230.09;5054126;28;19966;-72
2023/01/12 12:22:34;;;;;;;;;;;;;;;11.58;69.58;99199.22;5073259;28;19920;-71
2023/01/12 12:25:02;;;;;;;;;;;;;;;11.72;66.50;99222.81;5022604;28;19963;-71
2023/01/12 12:27:34;;;;;;;;;;;;;;;11.60;67.36;99229.22;5073899;28;19916;-72
2023/01/12 12:30:18;;;;;;;;;;;;;;;11.62;68.10;99237.75;5055297;28;19938;-72
2023/01/12 12:32:43;;;;;;;;;;;;;;;11.77;66.69;99263.94;5072303;28;19927;-72
2023/01/12 12:35:24;;;;;;;;;;;;;;;11.24;69.81;99247.56;5073776;28;19916;-73
2023/01/12 12:37:51;;;;;;;;;;;;;;;11.78;68.25;99291.44;5072476;28;20283;-73
2023/01/12 12:40:16;;;;;;;;;;;;;;;11.97;68.39;99310.63;5072402;28;19920;-72
2023/01/12 12:45:46;;;;;;;;;;;;;;;11.95;70.42;99290.91;5056606;28;19966;-72
2023/01/12 12:48:24;;;;;;;;;;;;;;;11.81;71.77;99273.28;5071921;28;20247;-72
2023/01/12 12:51:18;;;;;;;;;;;;;;;11.60;71.35;99269.66;5072211;28;19913;-72
2023/01/12 12:53:48;;;;;;;;;;;;;;;11.71;70.67;99280.47;5050582;28;19975;-71
2023/01/12 12:56:17;;;;;;;;;;;;;;;11.79;70.58;99285.38;5054352;28;20514;-73
2023/01/12 12:58:46;;;;;;;;;;;;;;;11.73;72.04;99274.38;5053945;28;19962;-72
2023/01/12 13:01:21;;;;;;;;;;;;;;;11.50;72.08;99244.16;5071764;28;19983;-72
2023/01/12 13:03:47;;;;;;;;;;;;;;;12.02;70.96;99275.19;5045456;28;20402;-72
2023/01/12 13:06:25;;;;;;;;;;;;;;;12.40;69.38;99278.19;5070115;28;20723;-72
2023/01/12 13:08:51;;;;;;;;;;;;;;;11.80;70.56;99231.16;5071028;28;19920;-72
2023/01/12 13:11:17;;;;;;;;;;;;;;;11.56;70.03;99227.63;5052208;28;19916;-71
2023/01/12 13:13:57;;;;;;;;;;;;;;;11.66;70.15;99254.00;5070205;28;19928;-71
2023/01/12 13:16:26;;;;;;;;;;;;;;;11.94;69.68;99277.19;5071509;28;20027;-72
2023/01/12 13:18:51;;;;;;;;;;;;;;;11.94;70.88;99266.84;5069903;28;19938;-71
2023/01/12 13:21:25;;;;;;;;;;;;;;;11.75;71.04;99250.28;5071008;28;19916;-72
2023/01/12 13:23:51;;;;;;;;;;;;;;;11.97;69.74;99259.00;5071152;28;19912;-72
2023/01/12 13:26:36;;;;;;;;;;;;;;;11.94;68.85;99269.44;5052949;28;19916;-73
2023/01/12 13:29:20;;;;;;;;;;;;;;;12.02;70.42;99259.72;5053368;28;19916;-71
2023/01/12 13:31:46;;;;;;;;;;;;;;;11.88;70.35;99267.06;5070893;28;19920;-72